Polaris, Montana
Current Conditions -  °F | °C
As of 5:53 PM on Monday 20 Oct 2014 (Local Time) from KDLN Reporting Station
Clear Clear  
Wind Chill: 70°   Ceiling: Unl
Heat Index: 70°   Visibility: 10mi
Dew Point: 29°   Wind: 22mph
Humidity: 22%   Direction: 170°S
Pressure: 29.85"   Gusts: 29mph
Location:  45.37°N, 113.12°W
Report Text: KDLN 202353Z AUTO 17019G25KT 10SM CLR 21/M02 A2985 RMK AO2 PK WND 18029/2303 SLP072 60000 T02111017 10239 20167 56009
Loading
Personal Weather Stations






























Interactive Weather Map
Tropical Storm Tracking
New forecast layout! Learn more

10-Day Weather Forecast

Advertisements
Track Severe Weather on mobile